Time;durP1;ratioP1;P1;durP2;ratioP2;P2;SDS_P1;SDS_P2;PMS_P1;PMS_P2;Temp;Humidity;BMP_temperature;BMP_pressure;BME280_temperature;BME280_humidity;BME280_pressure;Samples;Min_cycle;Max_cycle;Signal;HPM_P1;HPM_P2
2023/01/07 00:01:15;;;;;;;5.32;1.25;;;10.40;99.90;;;;;;5073379;28;20020;-52
2023/01/07 00:03:41;;;;;;;1.40;1.30;;;10.40;99.90;;;;;;5072774;28;20035;-51
2023/01/07 00:06:13;;;;;;;5.75;1.70;;;10.40;99.90;;;;;;5111935;28;20027;-54
2023/01/07 00:08:40;;;;;;;2.13;1.83;;;10.40;99.90;;;;;;5099231;28;20024;-52
2023/01/07 00:11:09;;;;;;;3.70;1.70;;;10.40;99.90;;;;;;5095030;28;20063;-54
2023/01/07 00:13:35;;;;;;;2.70;1.80;;;10.40;99.90;;;;;;5093993;28;20032;-50
2023/01/07 00:16:09;;;;;;;2.55;1.80;;;10.30;99.90;;;;;;5094597;28;20020;-52
2023/01/07 00:18:35;;;;;;;1.75;1.40;;;10.30;99.90;;;;;;5100929;22;20039;-47
2023/01/07 00:21:02;;;;;;;2.35;2.10;;;10.30;99.90;;;;;;5091054;28;20032;-50
2023/01/07 00:23:30;;;;;;;1.73;1.63;;;10.30;99.90;;;;;;5092718;28;20391;-50
2023/01/07 00:26:16;;;;;;;1.85;1.75;;;10.20;99.90;;;;;;5094575;28;20047;-50
2023/01/07 00:28:43;;;;;;;2.45;1.50;;;10.30;99.90;;;;;;5094353;28;20058;-51
2023/01/07 00:31:24;;;;;;;3.80;2.03;;;10.30;99.90;;;;;;5094372;28;20027;-51
2023/01/07 00:34:05;;;;;;;2.00;1.90;;;10.30;99.90;;;;;;5075179;28;20020;-53
2023/01/07 00:36:34;;;;;;;2.80;1.60;;;10.20;99.90;;;;;;5094404;28;20387;-47
2023/01/07 00:39:12;;;;;;;3.42;2.72;;;10.30;99.90;;;;;;5093927;28;20141;-51
2023/01/07 00:41:38;;;;;;;1.95;1.63;;;10.20;99.90;;;;;;5094090;28;20511;-47
2023/01/07 00:44:04;;;;;;;2.67;2.15;;;10.20;99.90;;;;;;5093519;28;20023;-52
2023/01/07 00:46:31;;;;;;;2.08;1.50;;;10.20;99.90;;;;;;5094290;28;20406;-51
2023/01/07 00:48:56;;;;;;;3.33;1.33;;;10.10;99.90;;;;;;5094119;28;20055;-53
2023/01/07 00:51:22;;;;;;;2.05;1.83;;;10.10;99.90;;;;;;5075914;28;20499;-51
2023/01/07 00:53:48;;;;;;;2.15;1.95;;;10.10;99.90;;;;;;5093233;28;20032;-50
2023/01/07 00:56:15;;;;;;;2.00;1.80;;;10.50;99.90;;;;;;5093982;28;20027;-48
2023/01/07 00:58:40;;;;;;;5.15;2.38;;;10.10;99.90;;;;;;5075434;28;20020;-50
2023/01/07 01:01:06;;;;;;;5.80;1.85;;;10.10;99.90;;;;;;5093820;28;20024;-49
2023/01/07 01:03:32;;;;;;;2.60;1.95;;;10.10;99.90;;;;;;5093021;28;20024;-50
2023/01/07 01:06:06;;;;;;;2.58;1.90;;;10.10;99.90;;;;;;5093759;28;20028;-47
2023/01/07 01:08:31;;;;;;;2.90;1.90;;;10.10;99.90;;;;;;5094277;28;20051;-51
2023/01/07 01:11:03;;;;;;;2.38;2.00;;;10.10;99.90;;;;;;5093536;28;20032;-50
2023/01/07 01:13:28;;;;;;;3.25;2.10;;;10.10;99.90;;;;;;5092948;28;20085;-52
2023/01/07 01:15:54;;;;;;;2.80;1.73;;;10.10;99.90;;;;;;5093618;28;20036;-47
2023/01/07 01:18:19;;;;;;;2.03;1.80;;;10.10;99.90;;;;;;5093769;28;20024;-51
2023/01/07 01:20:45;;;;;;;1.90;1.58;;;10.20;99.90;;;;;;5093475;28;20035;-49
2023/01/07 01:23:10;;;;;;;1.60;1.50;;;10.20;99.90;;;;;;5091417;28;20537;-52
2023/01/07 01:25:36;;;;;;;2.50;2.10;;;10.20;99.90;;;;;;5093301;28;20020;-53
2023/01/07 01:28:01;;;;;;;2.70;2.50;;;10.20;99.90;;;;;;5093441;28;20072;-48
2023/01/07 01:30:27;;;;;;;5.93;2.38;;;10.20;99.90;;;;;;5093277;28;20085;-51
2023/01/07 01:32:52;;;;;;;3.17;1.77;;;10.20;99.90;;;;;;5092412;28;20032;-53
2023/01/07 01:35:18;;;;;;;5.72;2.10;;;10.20;99.90;;;;;;5093060;28;20507;-49
2023/01/07 01:37:43;;;;;;;2.05;1.90;;;10.20;99.90;;;;;;5093029;28;20115;-46
2023/01/07 01:40:09;;;;;;;2.58;1.98;;;10.20;99.90;;;;;;5074790;28;20023;-51
2023/01/07 01:42:35;;;;;;;2.13;2.00;;;10.30;99.90;;;;;;5074273;28;20403;-48
2023/01/07 01:45:01;;;;;;;2.40;2.20;;;10.30;99.90;;;;;;5092049;28;20028;-52
2023/01/07 01:47:48;;;;;;;3.22;2.20;;;10.40;99.90;;;;;;5093376;28;20032;-53
2023/01/07 01:50:28;;;;;;;2.78;2.00;;;10.30;99.90;;;;;;5074652;28;20036;-54
2023/01/07 01:53:04;;;;;;;2.47;2.28;;;10.30;99.90;;;;;;5092427;28;20024;-52
2023/01/07 01:55:34;;;;;;;3.42;2.17;;;10.30;99.90;;;;;;5093092;28;20028;-50
2023/01/07 01:58:06;;;;;;;3.78;2.20;;;10.20;99.90;;;;;;5093095;28;20388;-50
2023/01/07 02:00:33;;;;;;;2.72;2.17;;;10.20;99.90;;;;;;5092817;28;20478;-51
2023/01/07 02:03:00;;;;;;;2.85;2.05;;;10.20;99.90;;;;;;5092508;28;20641;-50
2023/01/07 02:05:31;;;;;;;2.30;1.98;;;10.20;99.90;;;;;;5092637;28;20078;-51
2023/01/07 02:07:57;;;;;;;2.30;2.10;;;10.20;99.90;;;;;;5092696;28;20020;-51
2023/01/07 02:10:23;;;;;;;4.35;2.20;;;10.10;99.90;;;;;;5092797;28;20024;-51
2023/01/07 02:12:49;;;;;;;2.22;1.98;;;10.10;99.90;;;;;;5092001;28;20492;-48
2023/01/07 02:15:42;;;;;;;1.90;1.80;;;10.10;99.90;;;;;;5092521;28;20024;-53
2023/01/07 02:18:37;;;;;;;2.03;1.80;;;10.20;99.90;;;;;;5092382;28;20030;-51
2023/01/07 02:21:16;;;;;;;3.42;2.03;;;10.10;99.90;;;;;;5092099;28;20036;-50
2023/01/07 02:24:16;;;;;;;3.25;2.10;;;10.10;99.90;;;;;;5072481;28;20074;-48
2023/01/07 02:27:09;;;;;;;5.03;2.30;;;10.10;99.90;;;;;;5092243;28;20020;-51
2023/01/07 02:29:59;;;;;;;2.47;2.28;;;10.10;99.90;;;;;;5073718;28;20395;-52
2023/01/07 02:32:40;;;;;;;3.25;2.58;;;10.00;99.90;;;;;;5091298;28;20019;-49
2023/01/07 02:35:27;;;;;;;2.97;2.33;;;10.00;99.90;;;;;;5092051;28;20035;-51
2023/01/07 02:38:23;;;;;;;3.10;2.53;;;10.00;99.90;;;;;;5092145;28;20028;-52
2023/01/07 02:41:18;;;;;;;2.58;2.38;;;10.00;99.90;;;;;;5091895;28;20030;-48
2023/01/07 02:44:03;;;;;;;4.43;2.53;;;9.90;99.90;;;;;;5091246;28;20125;-50
2023/01/07 02:46:37;;;;;;;2.58;2.38;;;10.00;99.90;;;;;;5074165;28;20399;-49
2023/01/07 02:49:08;;;;;;;2.63;2.38;;;10.00;99.90;;;;;;5092170;28;20046;-52
2023/01/07 02:51:35;;;;;;;2.58;2.35;;;9.90;99.90;;;;;;5091896;28;20028;-52
2023/01/07 02:54:01;;;;;;;5.97;2.70;;;9.90;99.90;;;;;;5091120;28;20016;-50
2023/01/07 02:56:38;;;;;;;3.15;2.50;;;9.90;99.90;;;;;;5091423;28;20027;-50
2023/01/07 02:59:31;;;;;;;5.22;3.22;;;10.00;99.90;;;;;;5091582;28;20024;-51
2023/01/07 03:02:25;;;;;;;3.10;2.38;;;10.00;99.90;;;;;;5091696;28;20012;-49
2023/01/07 03:05:11;;;;;;;5.15;2.47;;;10.00;99.90;;;;;;5091891;28;20116;-49
2023/01/07 03:07:36;;;;;;;3.80;2.55;;;10.00;99.90;;;;;;5091586;28;20513;-50
2023/01/07 03:10:22;;;;;;;6.75;3.20;;;10.00;99.90;;;;;;5091532;28;20060;-48
2023/01/07 03:12:53;;;;;;;2.92;2.40;;;10.00;99.90;;;;;;5090940;28;20028;-50
2023/01/07 03:15:27;;;;;;;2.72;2.30;;;10.30;99.90;;;;;;5073117;28;20064;-50
2023/01/07 03:18:24;;;;;;;4.88;2.13;;;10.10;99.90;;;;;;5091395;28;20071;-52
2023/01/07 03:20:55;;;;;;;5.43;3.05;;;10.10;99.90;;;;;;5091316;28;20403;-49
2023/01/07 03:23:23;;;;;;;2.95;2.67;;;10.00;99.90;;;;;;5088905;28;20016;-51
2023/01/07 03:25:51;;;;;;;4.13;3.00;;;10.10;99.90;;;;;;5091271;28;20012;-50
2023/01/07 03:28:23;;;;;;;3.95;2.70;;;10.00;99.90;;;;;;5091388;28;20081;-50
2023/01/07 03:30:52;;;;;;;4.35;2.70;;;10.00;99.90;;;;;;5073042;28;20030;-49
2023/01/07 03:33:33;;;;;;;3.72;2.63;;;10.00;99.90;;;;;;5090439;28;20020;-49
2023/01/07 03:36:00;;;;;;;4.65;2.50;;;10.00;99.90;;;;;;5091435;28;20028;-48
2023/01/07 03:38:27;;;;;;;6.65;2.67;;;10.00;99.90;;;;;;5091165;28;20032;-50
2023/01/07 03:40:52;;;;;;;2.85;2.65;;;10.00;99.90;;;;;;5091122;28;20016;-48
2023/01/07 03:43:20;;;;;;;5.15;3.00;;;10.00;99.90;;;;;;5090557;28;20255;-49
2023/01/07 03:45:47;;;;;;;3.20;2.78;;;10.00;99.90;;;;;;5073058;28;20054;-49
2023/01/07 03:48:13;;;;;;;3.25;2.42;;;10.00;99.90;;;;;;5091459;28;20476;-50
2023/01/07 03:50:38;;;;;;;3.83;2.55;;;10.10;99.90;;;;;;5091042;28;20111;-47
2023/01/07 03:53:04;;;;;;;2.92;2.60;;;10.00;99.90;;;;;;5090455;28;20089;-50
2023/01/07 03:55:29;;;;;;;2.75;2.53;;;10.00;99.90;;;;;;5091092;28;20024;-50
2023/01/07 03:57:56;;;;;;;3.60;3.30;;;10.00;99.90;;;;;;5090998;28;20024;-49
2023/01/07 04:00:22;;;;;;;4.65;3.05;;;10.00;99.90;;;;;;5090759;28;20028;-51
2023/01/07 04:02:47;;;;;;;5.80;2.50;;;10.00;99.90;;;;;;5090327;28;20380;-48
2023/01/07 04:05:13;;;;;;;2.70;2.50;;;10.00;99.90;;;;;;5072819;28;20229;-50
2023/01/07 04:07:38;;;;;;;4.05;2.78;;;10.00;99.90;;;;;;5092837;28;20031;-53
2023/01/07 04:10:06;;;;;;;3.50;2.72;;;10.00;99.90;;;;;;5094696;28;20136;-52
2023/01/07 04:12:31;;;;;;;3.33;3.03;;;10.00;99.90;;;;;;5094098;28;20020;-51
2023/01/07 04:14:57;;;;;;;5.50;2.58;;;10.00;99.90;;;;;;5094593;28;20107;-50
2023/01/07 04:17:22;;;;;;;2.88;2.53;;;10.00;99.90;;;;;;5094493;28;20048;-48
2023/01/07 04:19:48;;;;;;;6.10;3.05;;;10.00;99.90;;;;;;5094455;28;20032;-50
2023/01/07 04:22:13;;;;;;;5.43;3.03;;;10.00;99.90;;;;;;5093887;28;20063;-50
2023/01/07 04:24:39;;;;;;;4.13;2.35;;;10.00;99.90;;;;;;5075539;28;20020;-48
2023/01/07 04:27:05;;;;;;;3.63;2.70;;;10.00;99.90;;;;;;5094518;28;20032;-51
2023/01/07 04:29:30;;;;;;;4.25;3.08;;;10.00;99.90;;;;;;5094427;28;20423;-46
2023/01/07 04:31:56;;;;;;;2.47;2.28;;;9.90;99.90;;;;;;5093592;28;20028;-48
2023/01/07 04:34:22;;;;;;;3.63;2.88;;;9.90;99.90;;;;;;5094357;28;20027;-50
2023/01/07 04:36:48;;;;;;;6.40;2.78;;;9.90;99.90;;;;;;5094197;28;20028;-47
2023/01/07 04:39:14;;;;;;;3.83;2.83;;;9.90;99.90;;;;;;5094280;28;20032;-51
2023/01/07 04:41:39;;;;;;;4.50;3.05;;;9.90;99.90;;;;;;5094321;28;20102;-49
2023/01/07 04:44:05;;;;;;;3.03;2.80;;;9.90;99.90;;;;;;5093563;28;20057;-48
2023/01/07 04:46:31;;;;;;;4.80;2.70;;;9.90;99.90;;;;;;5094420;28;20032;-49
2023/01/07 04:48:56;;;;;;;2.50;2.30;;;9.90;99.90;;;;;;5094254;28;20483;-50
2023/01/07 04:51:22;;;;;;;4.70;2.75;;;9.90;99.90;;;;;;5094311;28;20035;-49
2023/01/07 04:53:47;;;;;;;6.20;2.40;;;9.90;99.90;;;;;;5093452;28;20090;-47
2023/01/07 04:56:13;;;;;;;4.88;2.40;;;9.90;99.90;;;;;;5093818;28;20032;-48
2023/01/07 04:58:39;;;;;;;5.43;2.75;;;9.90;99.90;;;;;;5093831;28;20031;-49
2023/01/07 05:01:05;;;;;;;5.10;2.30;;;9.80;99.90;;;;;;5075755;28;20483;-48
2023/01/07 05:03:33;;;;;;;3.85;2.20;;;9.90;99.90;;;;;;5093096;28;20078;-48
2023/01/07 05:05:59;;;;;;;2.60;2.40;;;9.90;99.90;;;;;;5093857;28;20054;-54
2023/01/07 05:08:25;;;;;;;4.22;2.58;;;9.80;99.90;;;;;;5093956;28;20020;-50
2023/01/07 05:10:51;;;;;;;2.22;2.03;;;9.90;99.90;;;;;;5093598;28;20020;-47
2023/01/07 05:13:19;;;;;;;2.60;2.00;;;9.80;99.90;;;;;;5093000;28;20111;-52
2023/01/07 05:15:45;;;;;;;2.58;2.38;;;9.80;99.90;;;;;;5093869;28;20056;-51
2023/01/07 05:18:11;;;;;;;6.15;2.53;;;9.80;99.90;;;;;;5075429;28;20031;-52
2023/01/07 05:20:37;;;;;;;3.33;2.63;;;9.80;99.90;;;;;;5093459;28;20036;-49
2023/01/07 05:23:03;;;;;;;3.78;2.50;;;9.80;99.90;;;;;;5091527;28;20095;-46
2023/01/07 05:25:28;;;;;;;6.35;2.70;;;9.90;99.90;;;;;;5093409;28;20544;-49
2023/01/07 05:27:54;;;;;;;4.38;2.80;;;9.90;99.90;;;;;;5093155;28;20028;-49
2023/01/07 05:30:19;;;;;;;2.25;2.05;;;9.90;99.90;;;;;;5093214;28;20507;-50
2023/01/07 05:32:45;;;;;;;2.65;2.40;;;9.80;99.90;;;;;;5092557;28;20031;-47
2023/01/07 05:35:10;;;;;;;5.60;2.20;;;9.80;99.90;;;;;;5074991;28;20081;-49
2023/01/07 05:37:36;;;;;;;7.32;3.63;;;9.80;99.90;;;;;;5092841;28;20495;-51
2023/01/07 05:40:01;;;;;;;2.60;2.40;;;9.80;99.90;;;;;;5093105;28;20016;-49
2023/01/07 05:42:27;;;;;;;3.13;2.53;;;9.90;99.90;;;;;;5092145;28;20046;-52
2023/01/07 05:44:52;;;;;;;3.80;2.75;;;10.00;99.90;;;;;;5093007;28;20024;-46
2023/01/07 05:47:18;;;;;;;3.33;2.67;;;9.90;99.90;;;;;;5092918;28;20024;-47
2023/01/07 05:49:43;;;;;;;4.32;2.45;;;9.90;99.90;;;;;;5093067;28;20399;-50
2023/01/07 05:52:09;;;;;;;3.03;2.80;;;9.90;99.90;;;;;;5091958;28;20498;-51
2023/01/07 05:54:34;;;;;;;3.60;3.00;;;9.90;99.90;;;;;;5092906;28;20036;-48
2023/01/07 05:57:00;;;;;;;3.08;2.72;;;9.80;99.90;;;;;;5092566;28;20082;-50
2023/01/07 05:59:25;;;;;;;6.55;2.90;;;9.80;99.90;;;;;;5092603;28;20055;-48
2023/01/07 06:01:51;;;;;;;3.63;2.72;;;9.80;99.90;;;;;;5092331;28;20028;-46
2023/01/07 06:04:16;;;;;;;3.33;3.03;;;9.80;99.90;;;;;;5092394;28;20060;-47
2023/01/07 06:06:42;;;;;;;3.33;3.00;;;9.70;99.90;;;;;;5092329;28;20431;-52
2023/01/07 06:09:07;;;;;;;3.13;2.65;;;9.70;99.90;;;;;;5092519;28;20502;-52
2023/01/07 06:11:33;;;;;;;2.90;2.70;;;9.70;99.90;;;;;;5092397;28;20042;-47
2023/01/07 06:13:58;;;;;;;5.13;3.30;;;9.70;99.90;;;;;;5092055;28;20101;-50
2023/01/07 06:16:24;;;;;;;4.65;2.85;;;9.70;99.90;;;;;;5092795;28;20103;-51
2023/01/07 06:18:49;;;;;;;3.67;2.83;;;9.70;99.90;;;;;;5092358;28;20024;-48
2023/01/07 06:21:17;;;;;;;3.95;2.85;;;9.70;99.90;;;;;;5069568;22;20041;-50
2023/01/07 06:23:42;;;;;;;5.35;3.00;;;9.70;99.90;;;;;;5049511;28;20393;-53
2023/01/07 06:26:08;;;;;;;7.35;3.30;;;9.70;99.90;;;;;;5052048;28;20021;-52
2023/01/07 06:28:33;;;;;;;6.15;3.25;;;9.70;99.90;;;;;;5051985;28;20043;-52
2023/01/07 06:30:59;;;;;;;3.03;2.72;;;9.70;99.90;;;;;;5051484;28;20029;-57
2023/01/07 06:33:24;;;;;;;3.13;2.83;;;9.70;99.90;;;;;;5051104;28;20083;-52
2023/01/07 06:35:50;;;;;;;4.18;2.78;;;9.60;99.90;;;;;;5051844;28;20547;-51
2023/01/07 06:38:15;;;;;;;3.17;2.80;;;9.60;99.90;;;;;;5051749;28;20104;-52
2023/01/07 06:40:43;;;;;;;5.43;2.97;;;9.60;99.90;;;;;;5051734;28;20025;-55
2023/01/07 06:43:08;;;;;;;3.65;3.08;;;9.60;99.90;;;;;;5051012;28;20105;-50
2023/01/07 06:45:34;;;;;;;4.00;3.35;;;9.60;99.90;;;;;;5051836;28;20116;-51
2023/01/07 06:48:00;;;;;;;3.20;2.90;;;9.60;99.90;;;;;;5050559;28;20396;-52
2023/01/07 06:50:25;;;;;;;3.25;2.95;;;9.60;99.90;;;;;;5051633;28;20446;-50
2023/01/07 06:52:51;;;;;;;2.97;2.67;;;9.60;99.90;;;;;;5050942;28;20431;-48
2023/01/07 06:55:16;;;;;;;3.75;2.88;;;9.60;99.90;;;;;;5051625;28;20035;-51
2023/01/07 06:57:42;;;;;;;3.90;3.50;;;9.60;99.90;;;;;;5050069;28;20028;-53
2023/01/07 07:00:08;;;;;;;4.07;2.90;;;9.60;99.90;;;;;;5051679;28;20044;-53
2023/01/07 07:02:33;;;;;;;3.10;2.83;;;9.60;99.90;;;;;;5050658;28;20025;-48
2023/01/07 07:04:59;;;;;;;5.07;2.85;;;9.60;99.90;;;;;;5051479;28;20025;-49
2023/01/07 07:07:24;;;;;;;4.60;2.92;;;9.60;99.90;;;;;;5051341;28;20063;-50
2023/01/07 07:09:50;;;;;;;3.38;3.08;;;9.60;99.90;;;;;;5051370;28;20087;-44
2023/01/07 07:12:16;;;;;;;3.20;2.90;;;9.60;99.90;;;;;;5050623;28;20044;-51
2023/01/07 07:14:42;;;;;;;3.25;2.95;;;9.70;99.90;;;;;;5051347;28;20037;-49
2023/01/07 07:17:07;;;;;;;3.45;3.15;;;9.70;99.90;;;;;;5051397;28;20035;-50
2023/01/07 07:19:33;;;;;;;3.25;3.05;;;9.70;99.90;;;;;;5051187;28;20510;-45
2023/01/07 07:21:59;;;;;;;2.97;2.78;;;9.70;99.90;;;;;;5051064;28;20492;-49
2023/01/07 07:24:24;;;;;;;3.85;2.97;;;9.70;99.90;;;;;;5049528;28;20032;-51
2023/01/07 07:26:50;;;;;;;3.78;3.38;;;9.70;99.90;;;;;;5050173;28;20025;-53
2023/01/07 07:29:15;;;;;;;4.18;3.40;;;9.70;99.90;;;;;;5050880;28;20033;-48
2023/01/07 07:31:41;;;;;;;5.05;3.47;;;9.80;99.90;;;;;;5049937;28;20128;-49
2023/01/07 07:34:08;;;;;;;3.85;3.45;;;9.80;99.90;;;;;;5049119;28;20025;-44
2023/01/07 07:36:34;;;;;;;4.15;3.20;;;9.80;99.90;;;;;;5051065;28;20025;-52
2023/01/07 07:38:59;;;;;;;3.45;3.15;;;9.80;99.90;;;;;;5050951;28;20029;-48
2023/01/07 07:41:25;;;;;;;3.40;3.10;;;9.90;99.90;;;;;;5049816;28;20029;-49
2023/01/07 07:43:50;;;;;;;4.25;3.55;;;9.80;99.90;;;;;;5054091;28;20044;-51
2023/01/07 07:46:16;;;;;;;5.25;3.95;;;9.80;99.90;;;;;;5053645;28;20028;-49
2023/01/07 07:48:41;;;;;;;6.13;3.53;;;9.80;99.90;;;;;;5054949;28;20075;-53
2023/01/07 07:51:07;;;;;;;4.28;3.88;;;9.80;99.90;;;;;;5053609;28;20036;-53
2023/01/07 07:53:32;;;;;;;4.40;3.63;;;9.90;99.90;;;;;;5052711;28;20025;-44
2023/01/07 07:55:58;;;;;;;4.22;3.72;;;9.80;99.90;;;;;;5054738;28;20032;-52
2023/01/07 07:58:23;;;;;;;7.43;4.05;;;9.80;99.90;;;;;;5054637;28;20040;-50
2023/01/07 08:00:49;;;;;;;4.78;3.75;;;9.90;99.90;;;;;;5054697;28;20028;-50
2023/01/07 08:03:15;;;;;;;4.53;4.05;;;9.90;99.90;;;;;;5054026;28;20295;-50
2023/01/07 08:05:44;;;;;;;4.00;3.70;;;9.90;99.90;;;;;;5054325;28;20017;-51
2023/01/07 08:08:12;;;;;;;3.65;3.30;;;9.90;99.90;;;;;;5055307;28;20486;-52
2023/01/07 08:10:38;;;;;;;4.53;3.60;;;9.90;99.90;;;;;;5055145;28;20430;-48
2023/01/07 08:13:04;;;;;;;4.57;3.72;;;9.90;99.90;;;;;;5052633;28;20036;-52
2023/01/07 08:15:30;;;;;;;4.68;3.50;;;9.90;99.90;;;;;;5054603;28;20025;-50
2023/01/07 08:18:02;;;;;;;4.88;3.47;;;9.80;99.90;;;;;;5054409;28;20040;-52
2023/01/07 08:20:28;;;;;;;3.50;2.83;;;9.90;99.90;;;;;;5054739;28;20171;-48
2023/01/07 08:22:53;;;;;;;4.18;3.05;;;9.90;99.90;;;;;;5053582;28;20053;-46
2023/01/07 08:25:19;;;;;;;5.15;3.45;;;9.80;99.90;;;;;;5053173;28;20032;-50
2023/01/07 08:27:45;;;;;;;4.25;3.40;;;9.80;99.90;;;;;;5054313;28;20033;-51
2023/01/07 08:30:11;;;;;;;5.55;3.17;;;9.90;99.90;;;;;;5054894;28;20094;-48
2023/01/07 08:32:38;;;;;;;3.97;3.22;;;9.90;99.90;;;;;;5054461;28;20521;-50
2023/01/07 08:35:04;;;;;;;5.70;2.78;;;9.90;99.90;;;;;;5054991;28;20055;-48
2023/01/07 08:37:30;;;;;;;4.18;2.60;;;9.90;99.90;;;;;;5053948;28;20484;-48
2023/01/07 08:39:56;;;;;;;4.95;3.28;;;9.90;99.90;;;;;;5053966;28;20353;-53
2023/01/07 08:42:21;;;;;;;3.75;2.60;;;9.90;99.90;;;;;;5053453;28;20029;-56
2023/01/07 08:44:47;;;;;;;4.00;2.90;;;10.00;99.90;;;;;;5054168;28;20578;-50
2023/01/07 08:47:13;;;;;;;5.13;2.90;;;10.00;99.90;;;;;;5054176;28;20480;-49
2023/01/07 08:49:38;;;;;;;3.97;2.38;;;10.00;99.90;;;;;;5053895;28;20021;-47
2023/01/07 08:52:04;;;;;;;3.50;2.60;;;10.00;99.90;;;;;;5053297;28;20036;-51
2023/01/07 08:54:29;;;;;;;2.92;2.60;;;10.10;99.90;;;;;;5052132;28;20025;-50
2023/01/07 08:56:55;;;;;;;3.80;2.70;;;10.10;99.90;;;;;;5053807;28;20029;-52
2023/01/07 08:59:20;;;;;;;2.30;2.10;;;10.00;99.90;;;;;;5053688;28;20103;-53
2023/01/07 09:01:46;;;;;;;4.63;2.00;;;10.10;99.90;;;;;;5053660;28;20025;-47
2023/01/07 09:04:11;;;;;;;2.17;2.05;;;10.10;99.90;;;;;;5053238;28;20025;-48
2023/01/07 09:06:37;;;;;;;3.90;1.92;;;10.10;99.90;;;;;;5053421;28;20029;-52
2023/01/07 09:09:02;;;;;;;6.65;2.30;;;10.00;99.90;;;;;;5053321;28;20562;-52
2023/01/07 09:11:28;;;;;;;4.50;2.00;;;10.00;99.90;;;;;;5053480;28;20028;-47
2023/01/07 09:13:53;;;;;;;2.10;1.90;;;10.00;99.90;;;;;;5052755;28;20079;-50
2023/01/07 09:16:19;;;;;;;2.67;2.03;;;10.00;99.90;;;;;;5053286;28;20060;-51
2023/01/07 09:18:44;;;;;;;1.90;1.80;;;10.00;99.90;;;;;;5053204;28;20035;-50
2023/01/07 09:21:10;;;;;;;3.35;1.67;;;10.00;99.90;;;;;;5053004;28;20033;-53
2023/01/07 09:23:35;;;;;;;2.20;2.05;;;10.00;99.90;;;;;;5050820;28;20064;-44
2023/01/07 09:26:01;;;;;;;2.83;2.08;;;10.10;99.90;;;;;;5052982;28;20547;-53
2023/01/07 09:28:26;;;;;;;2.15;2.05;;;10.10;99.90;;;;;;5053219;28;20029;-51
2023/01/07 09:30:53;;;;;;;4.00;1.70;;;10.10;99.90;;;;;;5052986;28;20060;-47
2023/01/07 09:33:19;;;;;;;2.03;1.92;;;10.10;99.90;;;;;;5052321;28;20020;-45
2023/01/07 09:35:44;;;;;;;1.52;1.42;;;10.20;99.90;;;;;;5053358;28;20066;-47
2023/01/07 09:38:10;;;;;;;2.20;1.63;;;10.20;99.90;;;;;;5053146;28;20025;-49
2023/01/07 09:40:38;;;;;;;1.65;1.40;;;10.20;99.90;;;;;;5050441;28;20047;-48
2023/01/07 09:43:15;;;;;;;1.52;1.40;;;10.20;99.90;;;;;;5043512;28;20420;-52
2023/01/07 09:45:45;;;;;;;4.97;1.65;;;10.20;99.90;;;;;;5031967;28;20029;-47
2023/01/07 09:48:31;;;;;;;4.68;2.03;;;10.30;99.90;;;;;;5049734;28;20408;-51
2023/01/07 09:51:16;;;;;;;1.40;1.30;;;10.30;99.90;;;;;;5047266;28;20021;-50
2023/01/07 09:53:48;;;;;;;2.00;1.70;;;10.40;99.90;;;;;;5049435;28;20028;-50
2023/01/07 09:56:25;;;;;;;1.58;1.48;;;10.40;99.90;;;;;;5051593;28;20048;-49
2023/01/07 09:58:52;;;;;;;1.35;1.27;;;10.40;99.90;;;;;;5052990;28;20029;-51
2023/01/07 10:01:25;;;;;;;1.70;1.60;;;10.60;99.90;;;;;;5052649;28;20017;-50
2023/01/07 10:04:18;;;;;;;1.85;1.75;;;10.60;99.90;;;;;;5048736;28;20032;-51
2023/01/07 10:06:52;;;;;;;2.45;1.50;;;10.60;99.90;;;;;;5049482;28;20056;-51
2023/01/07 10:09:32;;;;;;;1.95;1.70;;;10.60;99.90;;;;;;5050292;28;20036;-54
2023/01/07 10:12:13;;;;;;;3.63;1.40;;;10.70;99.90;;;;;;5051307;28;20029;-54
2023/01/07 10:15:03;;;;;;;3.97;1.48;;;10.70;99.90;;;;;;5052036;28;20456;-52
2023/01/07 10:18:04;;;;;;;1.25;1.20;;;10.80;99.90;;;;;;5051971;28;20025;-53
2023/01/07 10:20:55;;;;;;;1.55;1.40;;;10.90;99.90;;;;;;5031838;28;20033;-50
2023/01/07 10:23:27;;;;;;;1.58;1.10;;;10.90;99.90;;;;;;5032099;28;20026;-47
2023/01/07 10:25:54;;;;;;;1.15;1.10;;;10.90;99.90;;;;;;5031666;28;20032;-51
2023/01/07 10:28:34;;;;;;;1.42;1.33;;;11.00;99.90;;;;;;5032185;28;20028;-55
2023/01/07 10:31:01;;;;;;;1.25;1.13;;;11.00;99.90;;;;;;5030981;28;20025;-52
2023/01/07 10:33:29;;;;;;;1.50;1.40;;;11.10;99.90;;;;;;5031429;28;20030;-51
2023/01/07 10:36:13;;;;;;;1.70;1.23;;;11.10;99.90;;;;;;5032012;28;20029;-55
2023/01/07 10:38:41;;;;;;;1.17;1.02;;;11.20;99.90;;;;;;5030820;28;20028;-54
2023/01/07 10:41:25;;;;;;;2.10;1.60;;;11.10;99.90;;;;;;5032056;28;20025;-50
2023/01/07 10:44:24;;;;;;;0.82;0.82;;;11.20;99.90;;;;;;5031395;28;20022;-46
2023/01/07 10:47:07;;;;;;;1.02;0.90;;;11.20;99.90;;;;;;5031657;28;20028;-46
2023/01/07 10:49:56;;;;;;;1.65;1.50;;;11.20;99.90;;;;;;5031761;28;20030;-50
2023/01/07 10:52:27;;;;;;;1.17;0.90;;;11.30;99.90;;;;;;5036511;28;20096;-53
2023/01/07 10:55:19;;;;;;;1.15;1.00;;;11.30;99.90;;;;;;5039377;28;20495;-55
2023/01/07 10:57:47;;;;;;;1.15;0.85;;;11.30;99.90;;;;;;5051400;28;20090;-56
2023/01/07 11:00:16;;;;;;;1.05;0.88;;;11.30;99.90;;;;;;5047230;28;20025;-56
2023/01/07 11:02:47;;;;;;;0.88;0.88;;;11.30;99.90;;;;;;5042757;28;20074;-56
2023/01/07 11:05:12;;;;;;;2.00;0.93;;;11.20;99.90;;;;;;5036244;28;20082;-54
2023/01/07 11:07:48;;;;;;;0.73;0.70;;;11.30;99.90;;;;;;5036628;28;20504;-53
2023/01/07 11:10:27;;;;;;;1.27;0.80;;;11.30;99.90;;;;;;5049594;28;20031;-51
2023/01/07 11:13:21;;;;;;;1.05;0.93;;;11.30;99.90;;;;;;5038034;28;20036;-47
2023/01/07 11:16:20;;;;;;;0.95;0.90;;;11.30;99.90;;;;;;5028896;28;20034;-50
2023/01/07 11:18:50;;;;;;;1.20;0.80;;;11.30;99.90;;;;;;5020411;28;20046;-53
2023/01/07 11:21:32;;;;;;;1.17;1.08;;;11.30;99.90;;;;;;5031021;28;20073;-54
2023/01/07 11:23:58;;;;;;;0.70;0.70;;;11.30;99.90;;;;;;5029028;28;20497;-54
2023/01/07 11:26:30;;;;;;;1.00;1.00;;;11.30;99.90;;;;;;5031127;28;20030;-54
2023/01/07 11:29:20;;;;;;;1.35;1.20;;;11.30;99.90;;;;;;5031206;28;20032;-54
2023/01/07 11:31:51;;;;;;;1.42;0.80;;;11.20;99.90;;;;;;5030856;28;20026;-51
2023/01/07 11:34:34;;;;;;;2.85;1.30;;;11.30;99.90;;;;;;5029390;28;20116;-49
2023/01/07 11:37:01;;;;;;;0.80;0.80;;;11.30;99.90;;;;;;5031197;28;20026;-53
2023/01/07 11:39:33;;;;;;;0.90;0.90;;;11.30;99.90;;;;;;5035733;28;20045;-55
2023/01/07 11:45:12;;;;;;;0.88;0.88;;;11.20;99.90;;;;;;5051032;28;20083;-56
2023/01/07 11:47:45;;;;;;;1.00;0.90;;;11.20;99.90;;;;;;5040163;28;20108;-52
2023/01/07 11:50:32;;;;;;;1.20;0.90;;;11.20;99.90;;;;;;5050347;28;20025;-55
2023/01/07 11:53:17;;;;;;;2.17;1.20;;;11.20;99.90;;;;;;5049376;28;20051;-53
2023/01/07 11:56:00;;;;;;;1.20;1.10;;;11.20;99.90;;;;;;5043120;28;20052;-53
2023/01/07 11:58:30;;;;;;;0.85;0.85;;;11.10;99.90;;;;;;5050819;28;20406;-57
2023/01/07 12:01:07;;;;;;;2.38;1.30;;;11.20;99.90;;;;;;5050337;28;20032;-55
2023/01/07 12:03:34;;;;;;;1.45;1.35;;;11.10;99.90;;;;;;5048541;28;20112;-54
2023/01/07 12:06:24;;;;;;;0.90;0.90;;;11.10;99.90;;;;;;5049066;28;20025;-54
2023/01/07 12:09:18;;;;;;;1.20;1.10;;;11.10;99.90;;;;;;5048308;28;20037;-55
2023/01/07 12:11:44;;;;;;;11.25;1.40;;;11.00;99.90;;;;;;5046553;28;20033;-53
2023/01/07 12:14:21;;;;;;;1.00;1.00;;;11.00;99.90;;;;;;5049833;28;20052;-57
2023/01/07 12:16:48;;;;;;;1.58;1.20;;;11.10;99.90;;;;;;5050377;28;20033;-56
2023/01/07 12:19:47;;;;;;;1.42;1.23;;;11.10;99.90;;;;;;5050391;28;20504;-53
2023/01/07 12:22:33;;;;;;;1.40;1.30;;;11.10;99.90;;;;;;5043939;22;20310;-53
2023/01/07 12:25:09;;;;;;;1.00;1.00;;;11.10;99.90;;;;;;5029616;28;20512;-54
2023/01/07 12:27:56;;;;;;;1.00;1.00;;;11.10;99.90;;;;;;5030686;28;20025;-47
2023/01/07 12:30:43;;;;;;;1.73;1.30;;;11.10;99.90;;;;;;5028111;28;20022;-50
2023/01/07 12:33:34;;;;;;;3.45;1.20;;;11.00;99.90;;;;;;5013280;28;20063;-53
2023/01/07 12:36:07;;;;;;;1.30;1.20;;;11.10;99.90;;;;;;5006807;28;20113;-50
2023/01/07 12:38:45;;;;;;;1.77;1.67;;;11.00;99.90;;;;;;5019563;28;20017;-51
2023/01/07 12:41:18;;;;;;;1.60;1.15;;;11.00;99.90;;;;;;5033636;28;20456;-52
2023/01/07 12:44:11;;;;;;;3.05;1.40;;;11.00;99.90;;;;;;5032111;28;20109;-53
2023/01/07 12:46:45;;;;;;;1.80;1.40;;;11.00;99.90;;;;;;5033178;28;20026;-50
2023/01/07 12:49:19;;;;;;;1.73;1.63;;;11.00;99.90;;;;;;5033556;28;20037;-54
2023/01/07 12:51:54;;;;;;;1.00;1.00;;;11.00;99.90;;;;;;5032409;28;20025;-51
2023/01/07 12:54:44;;;;;;;1.42;1.25;;;11.00;99.90;;;;;;5030914;28;20083;-50
2023/01/07 12:57:29;;;;;;;1.67;1.20;;;11.00;99.90;;;;;;5031492;28;20058;-51
2023/01/07 13:00:17;;;;;;;2.53;1.50;;;11.00;99.90;;;;;;5031489;28;20013;-49
2023/01/07 13:03:00;;;;;;;3.05;1.08;;;11.10;99.90;;;;;;5031746;28;20512;-48
2023/01/07 13:05:37;;;;;;;1.35;1.25;;;11.10;99.90;;;;;;5033479;28;20072;-54
2023/01/07 13:08:33;;;;;;;1.42;1.30;;;11.00;99.90;;;;;;5020010;28;20395;-52
2023/01/07 13:11:07;;;;;;;1.80;1.48;;;11.10;99.90;;;;;;5033691;28;20025;-49
2023/01/07 13:13:39;;;;;;;1.65;1.40;;;11.10;99.90;;;;;;5030813;28;20061;-48